Time;durP1;ratioP1;P1;durP2;ratioP2;P2;SDS_P1;SDS_P2;PMS_P1;PMS_P2;Temp;Humidity;BMP_temperature;BMP_pressure;BME280_temperature;BME280_humidity;BME280_pressure;Samples;Min_cycle;Max_cycle;Signal;HPM_P1;HPM_P2
2022/07/05 07:58:31;;;;;;;;;;;;;;;;;;1024439;27;20457;-77
2022/07/05 07:59:02;;;;;;;11.52;4.70;;;;;;;;;;1050657;28;20657;-77
2022/07/05 07:59:33;;;;;;;8.65;3.30;;;;;;;;;;1050631;28;20028;-76
2022/07/05 08:00:04;;;;;;;5.03;3.63;;;;;;;;;;1049140;28;20020;-76
2022/07/05 08:00:35;;;;;;;28.45;7.80;;;;;;;;;;1046239;28;20028;-77
2022/07/05 08:01:10;;;;;;;9.32;5.15;;;;;;;;;;1046388;28;20461;-77
2022/07/05 08:01:41;;;;;;;13.27;3.67;;;;;;;;;;1047905;28;20013;-77
2022/07/05 08:02:12;;;;;;;13.82;4.72;;;;;;;;;;1046158;28;20068;-77
2022/07/05 08:02:42;;;;;;;7.75;3.10;;;;;;;;;;1047158;28;20031;-76
2022/07/05 08:03:13;;;;;;;8.15;2.65;;;;;;;;;;1046816;28;20033;-77
2022/07/05 08:03:43;;;;;;;10.50;3.28;;;;;;;;;;1046279;28;20122;-76
2022/07/05 08:04:14;;;;;;;5.13;2.75;;;;;;;;;;1046434;28;20078;-76
2022/07/05 08:04:45;;;;;;;8.45;4.47;;;;;;;;;;1045899;28;20495;-77
2022/07/05 08:05:15;;;;;;;11.77;4.05;;;;;;;;;;1046178;28;20112;-77
2022/07/05 08:05:46;;;;;;;11.13;2.92;;;;;;;;;;1045067;28;21553;-80
2022/07/05 08:06:17;;;;;;;16.45;4.38;;;;;;;;;;1046417;28;20480;-77
2022/07/05 08:06:47;;;;;;;10.60;4.13;;;;;;;;;;1046389;28;20124;-77
2022/07/05 08:07:19;;;;;;;10.70;4.88;;;;;;;;;;1045936;28;20119;-77
2022/07/05 08:07:51;;;;;;;17.70;3.78;;;;;;;;;;1046930;28;20028;-77
2022/07/05 08:08:21;;;;;;;13.82;4.38;;;;;;;;;;1046273;28;20016;-77
2022/07/05 08:08:52;;;;;;;15.98;3.75;;;;;;;;;;1046936;28;20105;-78
2022/07/05 08:09:23;;;;;;;6.18;4.20;;;;;;;;;;1047393;28;21770;-78
2022/07/05 08:09:53;;;;;;;11.20;4.72;;;;;;;;;;1044732;28;20020;-78
2022/07/05 08:10:24;;;;;;;7.05;4.63;;;;;;;;;;1046027;28;20028;-78
2022/07/05 08:10:55;;;;;;;25.55;4.63;;;;;;;;;;1046703;28;20056;-79
2022/07/05 08:11:26;;;;;;;8.00;3.92;;;;;;;;;;1046311;28;20032;-77
2022/07/05 08:11:56;;;;;;;16.08;4.78;;;;;;;;;;1045750;28;20029;-77
2022/07/05 08:12:27;;;;;;;10.73;3.67;;;;;;;;;;1048033;28;20098;-78
2022/07/05 08:12:57;;;;;;;8.18;3.83;;;;;;;;;;1046939;28;20124;-77
2022/07/05 08:13:28;;;;;;;8.25;4.50;;;;;;;;;;1045393;28;20032;-78
2022/07/05 08:13:58;;;;;;;13.95;4.65;;;;;;;;;;1049226;28;20017;-77
2022/07/05 08:14:29;;;;;;;15.05;4.70;;;;;;;;;;1050611;28;20031;-78
2022/07/05 08:14:59;;;;;;;23.30;8.05;;;;;;;;;;1045673;28;20021;-77
2022/07/05 08:15:30;;;;;;;30.88;10.27;;;;;;;;;;1045868;28;20027;-78
2022/07/05 08:16:00;;;;;;;23.38;7.78;;;;;;;;;;1044743;28;20021;-77
2022/07/05 08:16:31;;;;;;;24.17;7.70;;;;;;;;;;1044316;28;20050;-77
2022/07/05 08:17:02;;;;;;;19.58;6.28;;;;;;;;;;1045635;28;20624;-78
2022/07/05 08:17:32;;;;;;;10.30;4.40;;;;;;;;;;1046202;28;20016;-78
2022/07/05 08:21:39;;;;;;;14.93;8.45;;;;;;;;;;1045392;28;20358;-77
2022/07/05 08:22:10;;;;;;;13.80;5.25;;;;;;;;;;1044951;28;20028;-77
2022/07/05 08:22:40;;;;;;;17.88;5.55;;;;;;;;;;1045659;28;20123;-78
2022/07/05 08:23:11;;;;;;;15.40;5.40;;;;;;;;;;1043893;28;20025;-79
2022/07/05 08:23:42;;;;;;;11.48;5.22;;;;;;;;;;1039867;28;20432;-78
2022/07/05 08:24:13;;;;;;;17.63;5.97;;;;;;;;;;1042520;28;20049;-78
2022/07/05 08:24:44;;;;;;;19.00;7.00;;;;;;;;;;1042321;28;20436;-78
2022/07/05 08:25:16;;;;;;;21.85;7.43;;;;;;;;;;1039526;28;20566;-77
2022/07/05 08:25:47;;;;;;;13.10;6.03;;;;;;;;;;1040744;28;20021;-76
2022/07/05 08:26:18;;;;;;;14.65;6.53;;;;;;;;;;1041438;28;20025;-76
2022/07/05 08:26:49;;;;;;;13.32;6.32;;;;;;;;;;1044019;28;20021;-76
2022/07/05 08:27:21;;;;;;;12.82;6.78;;;;;;;;;;1045852;28;20468;-76
2022/07/05 08:27:51;;;;;;;18.27;6.43;;;;;;;;;;1046201;28;20025;-77
2022/07/05 08:28:22;;;;;;;310.10;78.55;;;;;;;;;;1047221;28;20013;-76
2022/07/05 08:28:52;;;;;;;631.63;187.05;;;;;;;;;;1046732;28;20481;-76
2022/07/05 08:29:23;;;;;;;312.08;85.93;;;;;;;;;;1043068;28;20068;-78
2022/07/05 08:29:53;;;;;;;146.73;39.58;;;;;;;;;;1038797;28;20053;-77
2022/07/05 08:30:24;;;;;;;112.55;31.02;;;;;;;;;;1037855;28;20044;-78
2022/07/05 08:30:54;;;;;;;71.45;24.67;;;;;;;;;;1039022;28;20080;-77
2022/07/05 08:31:25;;;;;;;36.75;13.55;;;;;;;;;;1042010;28;20052;-77
2022/07/05 08:31:56;;;;;;;74.38;20.45;;;;;;;;;;1042765;28;20033;-78
2022/07/05 08:32:26;;;;;;;71.93;20.52;;;;;;;;;;1043351;28;20021;-79
2022/07/05 08:32:57;;;;;;;63.05;21.13;;;;;;;;;;1047525;28;20079;-76
2022/07/05 08:33:29;;;;;;;92.25;27.00;;;;;;;;;;1047392;28;20029;-77
2022/07/05 08:34:05;;;;;;;212.50;65.18;;;;;;;;;;1049582;28;20025;-77
2022/07/05 08:34:38;;;;;;;354.25;107.75;;;;;;;;;;1048280;28;20031;-78
2022/07/05 08:35:09;;;;;;;199.13;64.10;;;;;;;;;;1046432;28;20040;-78
2022/07/05 08:35:39;;;;;;;138.75;45.58;;;;;;;;;;1047518;28;20024;-77
2022/07/05 08:36:10;;;;;;;69.90;23.75;;;;;;;;;;1046305;28;20017;-78
2022/07/05 08:36:43;;;;;;;132.30;38.80;;;;;;;;;;1045540;28;20396;-78
2022/07/05 08:37:13;;;;;;;114.00;43.25;;;;;;;;;;1045638;28;20074;-77
2022/07/05 08:37:44;;;;;;;142.82;52.50;;;;;;;;;;1044739;28;20082;-79
2022/07/05 08:38:14;;;;;;;88.72;31.92;;;;;;;;;;1045989;28;20056;-80
2022/07/05 08:38:45;;;;;;;182.00;66.55;;;;;;;;;;1045208;28;20016;-79
2022/07/05 08:39:16;;;;;;;149.75;56.15;;;;;;;;;;1044843;28;20032;-78
2022/07/05 08:39:47;;;;;;;84.30;34.80;;;;;;;;;;1046744;28;20024;-78
2022/07/05 08:40:20;;;;;;;80.07;29.63;;;;;;;;;;1046829;28;20044;-78
2022/07/05 08:40:51;;;;;;;81.13;29.67;;;;;;;;;;1046013;28;20507;-78
2022/07/05 08:41:22;;;;;;;61.80;24.33;;;;;;;;;;1046789;28;20017;-78
2022/07/05 08:41:54;;;;;;;31.90;14.35;;;;;;;;;;1047568;28;20102;-78
2022/07/05 08:42:24;;;;;;;63.15;26.40;;;;;;;;;;1047624;28;20571;-78
2022/07/05 08:42:57;;;;;;;47.75;21.98;;;;;;;;;;1043588;28;20029;-77
2022/07/05 08:43:28;;;;;;;49.20;22.23;;;;;;;;;;1046618;28;20028;-78
2022/07/05 08:43:59;;;;;;;113.28;48.42;;;;;;;;;;1046478;28;20495;-78
2022/07/05 08:44:32;;;;;;;115.75;48.70;;;;;;;;;;1049355;28;20021;-77
2022/07/05 08:45:03;;;;;;;37.92;16.10;;;;;;;;;;1047269;28;20484;-79
2022/07/05 08:45:34;;;;;;;27.35;14.38;;;;;;;;;;1045991;28;20021;-77
2022/07/05 08:46:08;;;;;;;18.65;11.75;;;;;;;;;;1046731;28;20464;-77
2022/07/05 08:46:40;;;;;;;26.92;11.70;;;;;;;;;;1046411;28;20119;-78
2022/07/05 08:47:11;;;;;;;29.38;13.32;;;;;;;;;;1047534;28;20028;-78
2022/07/05 08:47:42;;;;;;;20.25;10.00;;;;;;;;;;1046689;28;20441;-77
2022/07/05 08:48:15;;;;;;;41.10;13.02;;;;;;;;;;1046931;28;20028;-79
2022/07/05 08:48:49;;;;;;;17.27;9.50;;;;;;;;;;1043574;28;20029;-78
2022/07/05 08:49:22;;;;;;;43.63;13.13;;;;;;;;;;1042562;28;20025;-77
2022/07/05 08:49:53;;;;;;;58.03;15.18;;;;;;;;;;1043708;28;20032;-77
2022/07/05 08:50:25;;;;;;;29.30;11.35;;;;;;;;;;1043770;28;20029;-79
2022/07/05 08:50:56;;;;;;;35.22;11.75;;;;;;;;;;1047214;28;20021;-77
2022/07/05 08:51:27;;;;;;;28.35;12.88;;;;;;;;;;1045385;28;20087;-78
2022/07/05 08:51:59;;;;;;;36.60;15.25;;;;;;;;;;1041614;28;20036;-78
2022/07/05 08:52:30;;;;;;;70.85;29.33;;;;;;;;;;1044633;28;20032;-79
2022/07/05 08:53:01;;;;;;;78.45;36.78;;;;;;;;;;1044780;28;20037;-78
2022/07/05 08:53:32;;;;;;;85.03;34.15;;;;;;;;;;1046078;28;20574;-77
2022/07/05 08:54:03;;;;;;;59.90;26.67;;;;;;;;;;1047735;28;20043;-78
2022/07/05 08:54:33;;;;;;;51.95;22.25;;;;;;;;;;1047222;28;20051;-78
2022/07/05 08:55:04;;;;;;;269.63;108.78;;;;;;;;;;1045564;28;20032;-78
2022/07/05 08:55:35;;;;;;;201.25;82.70;;;;;;;;;;1048778;28;20093;-78
2022/07/05 08:56:07;;;;;;;143.82;57.08;;;;;;;;;;1046813;28;20016;-77
2022/07/05 08:56:37;;;;;;;82.85;37.92;;;;;;;;;;1047350;28;20121;-78
2022/07/05 08:57:08;;;;;;;91.25;37.72;;;;;;;;;;1046996;28;20029;-79
2022/07/05 08:57:39;;;;;;;143.80;58.35;;;;;;;;;;1047308;28;20445;-77
2022/07/05 08:58:10;;;;;;;148.13;58.25;;;;;;;;;;1047428;28;20062;-77
2022/07/05 08:58:40;;;;;;;179.68;65.55;;;;;;;;;;1047615;28;20230;-77
2022/07/05 08:59:11;;;;;;;127.28;46.60;;;;;;;;;;1047606;28;20595;-78
2022/07/05 08:59:41;;;;;;;146.45;58.90;;;;;;;;;;1047354;28;20060;-78
2022/07/05 09:00:12;;;;;;;99.25;39.65;;;;;;;;;;1046299;28;20465;-77
2022/07/05 09:00:43;;;;;;;61.95;27.58;;;;;;;;;;1042478;28;20112;-78
2022/07/05 09:01:14;;;;;;;66.53;25.52;;;;;;;;;;1042647;28;20033;-77
2022/07/05 09:01:45;;;;;;;53.95;23.15;;;;;;;;;;1043226;28;20644;-78
2022/07/05 09:02:16;;;;;;;49.00;20.77;;;;;;;;;;1046886;28;20496;-78
2022/07/05 09:02:46;;;;;;;31.60;16.63;;;;;;;;;;1046999;28;20029;-77
2022/07/05 09:03:19;;;;;;;28.80;13.82;;;;;;;;;;1046921;28;20488;-77
2022/07/05 09:03:51;;;;;;;35.13;18.27;;;;;;;;;;1047277;28;20033;-77
2022/07/05 09:04:22;;;;;;;49.53;23.33;;;;;;;;;;1047142;28;20024;-78
2022/07/05 09:04:53;;;;;;;45.33;21.20;;;;;;;;;;1046282;28;20032;-78
2022/07/05 09:05:25;;;;;;;38.50;20.10;;;;;;;;;;1047616;28;20083;-79
2022/07/05 09:05:56;;;;;;;41.35;20.13;;;;;;;;;;1047118;28;20047;-79
2022/07/05 09:06:27;;;;;;;45.10;20.33;;;;;;;;;;1051362;28;20016;-78
2022/07/05 09:07:00;;;;;;;34.60;17.80;;;;;;;;;;1046159;28;20267;-78
2022/07/05 09:07:32;;;;;;;30.15;15.50;;;;;;;;;;1045413;28;20029;-77
2022/07/05 09:08:04;;;;;;;25.05;9.90;;;;;;;;;;1045984;28;20054;-78
2022/07/05 09:08:38;;;;;;;18.48;9.40;;;;;;;;;;1047146;28;20024;-78
2022/07/05 09:09:10;;;;;;;25.25;12.07;;;;;;;;;;1047118;28;20025;-77
2022/07/05 09:09:43;;;;;;;26.05;13.73;;;;;;;;;;1045126;28;20024;-78
2022/07/05 09:10:14;;;;;;;22.88;11.95;;;;;;;;;;1044019;28;20455;-78
2022/07/05 09:10:45;;;;;;;34.67;14.20;;;;;;;;;;1046094;28;20067;-78
2022/07/05 09:11:16;;;;;;;24.55;13.02;;;;;;;;;;1049301;28;20115;-78
2022/07/05 09:11:46;;;;;;;24.85;12.93;;;;;;;;;;1049145;28;20021;-78
2022/07/05 09:12:18;;;;;;;22.98;11.55;;;;;;;;;;1050365;28;20822;-78
2022/07/05 09:12:49;;;;;;;20.38;10.35;;;;;;;;;;1048486;28;20530;-78
2022/07/05 09:13:19;;;;;;;25.02;10.27;;;;;;;;;;1048377;28;20020;-78
2022/07/05 09:13:52;;;;;;;22.05;9.30;;;;;;;;;;1049970;28;20028;-78
2022/07/05 09:14:24;;;;;;;19.08;9.88;;;;;;;;;;1050076;28;20039;-77
2022/07/05 09:14:56;;;;;;;15.55;9.57;;;;;;;;;;1049062;28;20543;-77
2022/07/05 09:15:26;;;;;;;29.48;11.65;;;;;;;;;;1048847;28;20051;-77
2022/07/05 09:15:57;;;;;;;20.65;10.98;;;;;;;;;;1048836;28;20071;-79
2022/07/05 09:16:29;;;;;;;18.35;10.23;;;;;;;;;;1050478;28;20028;-78
2022/07/05 09:17:00;;;;;;;22.02;11.98;;;;;;;;;;1050313;28;21191;-78
2022/07/05 09:17:30;;;;;;;27.52;13.15;;;;;;;;;;1051196;28;20419;-78
2022/07/05 09:18:03;;;;;;;25.30;12.93;;;;;;;;;;1050391;28;20020;-78
2022/07/05 09:18:47;;;;;;;25.90;13.93;;;;;;;;;;1050533;28;20032;-76
2022/07/05 09:19:18;;;;;;;34.63;15.02;;;;;;;;;;1050196;28;20019;-77
2022/07/05 09:20:08;;;;;;;37.70;16.42;;;;;;;;;;1047998;28;20031;-78
2022/07/05 09:20:39;;;;;;;35.97;13.25;;;;;;;;;;1051622;28;20024;-78
2022/07/05 09:21:13;;;;;;;131.88;24.20;;;;;;;;;;1049318;28;21081;-78
2022/07/05 09:21:44;;;;;;;115.15;22.90;;;;;;;;;;1049684;28;20105;-78
2022/07/05 09:22:14;;;;;;;52.75;13.88;;;;;;;;;;1049508;28;20069;-78
2022/07/05 09:22:46;;;;;;;41.35;12.45;;;;;;;;;;1048456;28;20067;-78
2022/07/05 09:23:20;;;;;;;86.55;17.10;;;;;;;;;;1045791;28;20587;-80
2022/07/05 09:23:55;;;;;;;21.45;8.50;;;;;;;;;;1047490;28;20119;-77
2022/07/05 09:24:26;;;;;;;58.92;12.27;;;;;;;;;;1047310;28;20050;-77
2022/07/05 09:24:56;;;;;;;29.58;10.20;;;;;;;;;;1047285;28;20524;-77
2022/07/05 09:25:28;;;;;;;31.58;9.20;;;;;;;;;;1047781;28;20027;-77
2022/07/05 09:26:01;;;;;;;31.25;9.23;;;;;;;;;;1047775;28;20123;-77
2022/07/05 09:26:37;;;;;;;32.08;7.93;;;;;;;;;;1048469;28;20115;-77
2022/07/05 09:27:08;;;;;;;31.98;7.68;;;;;;;;;;1044530;28;20092;-77
2022/07/05 09:28:00;;;;;;;18.13;6.60;;;;;;;;;;1043537;28;20095;-77
2022/07/05 09:28:30;;;;;;;10.00;5.40;;;;;;;;;;1043625;28;20094;-77
2022/07/05 09:29:01;;;;;;;13.07;4.53;;;;;;;;;;1043090;28;20508;-77
2022/07/05 09:29:32;;;;;;;24.38;7.15;;;;;;;;;;1046447;28;20483;-77
2022/07/05 09:30:03;;;;;;;20.55;5.85;;;;;;;;;;1047839;28;20020;-77
2022/07/05 09:30:41;;;;;;;9.85;5.28;;;;;;;;;;1048449;28;20446;-77
2022/07/05 09:31:25;;;;;;;17.58;4.60;;;;;;;;;;1048600;28;20028;-78
2022/07/05 09:31:56;;;;;;;10.98;5.18;;;;;;;;;;1047550;28;20024;-78
2022/07/05 09:32:30;;;;;;;16.25;4.60;;;;;;;;;;1047879;28;20115;-77
2022/07/05 09:33:02;;;;;;;18.27;6.95;;;;;;;;;;1048116;28;20020;-79
2022/07/05 09:33:32;;;;;;;23.00;5.55;;;;;;;;;;1048410;28;20047;-77
2022/07/05 09:34:04;;;;;;;11.88;5.28;;;;;;;;;;1048703;28;20020;-76
2022/07/05 09:34:35;;;;;;;12.65;5.47;;;;;;;;;;1049735;28;20094;-76
2022/07/05 09:35:19;;;;;;;21.70;6.35;;;;;;;;;;1051020;28;20021;-76
2022/07/05 09:35:58;;;;;;;21.70;5.57;;;;;;;;;;1048811;28;20020;-76
2022/07/05 09:36:46;;;;;;;18.80;6.43;;;;;;;;;;1043897;28;20025;-79
2022/07/05 09:37:16;;;;;;;20.63;5.35;;;;;;;;;;1047178;28;20115;-77
2022/07/05 09:37:47;;;;;;;16.25;5.45;;;;;;;;;;1047797;28;20024;-79
2022/07/05 09:38:18;;;;;;;16.98;4.78;;;;;;;;;;1048628;28;20071;-77
2022/07/05 09:38:50;;;;;;;19.92;4.40;;;;;;;;;;1047299;28;20380;-77
2022/07/05 09:39:41;;;;;;;15.60;3.53;;;;;;;;;;1047236;28;20017;-78
2022/07/05 09:40:12;;;;;;;13.32;3.75;;;;;;;;;;1041861;28;20152;-77
2022/07/05 09:40:52;;;;;;;15.38;4.97;;;;;;;;;;1040240;28;20021;-77
2022/07/05 09:41:23;;;;;;;48.90;6.38;;;;;;;;;;1043780;28;20028;-77
2022/07/05 09:42:14;;;;;;;25.33;4.15;;;;;;;;;;1044458;28;20053;-76
2022/07/05 09:42:44;;;;;;;24.35;5.75;;;;;;;;;;1047293;28;20029;-76
2022/07/05 09:43:16;;;;;;;14.02;4.53;;;;;;;;;;1046209;28;20460;-76
2022/07/05 09:43:47;;;;;;;17.00;3.25;;;;;;;;;;1041015;28;20416;-78
2022/07/05 09:44:25;;;;;;;12.23;2.83;;;;;;;;;;1041115;28;20053;-78
2022/07/05 09:44:57;;;;;;;13.98;3.47;;;;;;;;;;1046217;28;20036;-77
2022/07/05 09:45:28;;;;;;;32.90;4.72;;;;;;;;;;1049369;28;20016;-76
2022/07/05 09:45:59;;;;;;;19.70;4.90;;;;;;;;;;1044850;28;20031;-77
2022/07/05 09:46:30;;;;;;;14.50;4.32;;;;;;;;;;1049972;28;20024;-77
2022/07/05 09:47:09;;;;;;;20.48;3.47;;;;;;;;;;1049387;28;20083;-78
2022/07/05 09:47:40;;;;;;;10.87;3.67;;;;;;;;;;1049178;28;20047;-78
2022/07/05 09:48:11;;;;;;;8.60;3.70;;;;;;;;;;1050713;28;20262;-77
2022/07/05 09:48:51;;;;;;;21.58;4.90;;;;;;;;;;1047530;28;20031;-76
2022/07/05 09:49:25;;;;;;;13.27;4.15;;;;;;;;;;1047896;28;20133;-77
2022/07/05 09:50:03;;;;;;;14.30;3.88;;;;;;;;;;1049895;28;20029;-77
2022/07/05 09:50:34;;;;;;;25.30;8.40;;;;;;;;;;1049666;28;20020;-78
2022/07/05 09:51:09;;;;;;;22.00;5.28;;;;;;;;;;1049067;28;20024;-77
2022/07/05 09:51:49;;;;;;;22.88;4.93;;;;;;;;;;1048263;28;20085;-77
2022/07/05 09:52:33;;;;;;;15.73;4.75;;;;;;;;;;1047754;28;20024;-78
2022/07/05 09:53:04;;;;;;;27.77;6.18;;;;;;;;;;1048273;28;20032;-79
2022/07/05 09:53:45;;;;;;;20.38;4.88;;;;;;;;;;1047372;28;20027;-78
2022/07/05 09:54:16;;;;;;;9.45;4.40;;;;;;;;;;1047163;28;20059;-78
2022/07/05 09:55:00;;;;;;;13.07;3.50;;;;;;;;;;1047835;28;20024;-79
2022/07/05 09:55:30;;;;;;;19.35;5.75;;;;;;;;;;1047732;28;20110;-77
2022/07/05 09:56:01;;;;;;;14.95;4.88;;;;;;;;;;1047035;28;20600;-75
2022/07/05 09:56:45;;;;;;;8.10;3.95;;;;;;;;;;1047859;28;20016;-77
2022/07/05 09:57:25;;;;;;;14.50;6.45;;;;;;;;;;1047433;28;20079;-79
2022/07/05 09:57:56;;;;;;;12.82;4.88;;;;;;;;;;1047725;28;20067;-79
2022/07/05 09:58:26;;;;;;;11.80;3.22;;;;;;;;;;1048546;28;20210;-81
2022/07/05 09:59:40;;;;;;;26.48;4.40;;;;;;;;;;1090528;22;20045;-79
2022/07/05 10:00:11;;;;;;;6.97;2.70;;;;;;;;;;1034087;28;20163;-81
2022/07/05 10:00:42;;;;;;;31.63;4.53;;;;;;;;;;1033426;28;20138;-81
2022/07/05 10:01:25;;;;;;;12.73;3.47;;;;;;;;;;1035885;28;20084;-78
2022/07/05 10:01:55;;;;;;;11.50;3.55;;;;;;;;;;1030876;28;20025;-80
2022/07/05 10:02:38;;;;;;;10.93;4.00;;;;;;;;;;1033785;28;20109;-80
2022/07/05 10:03:09;;;;;;;13.10;5.22;;;;;;;;;;1030422;28;20542;-81
2022/07/05 10:03:54;;;;;;;17.15;5.25;;;;;;;;;;1033355;28;20037;-81
2022/07/05 10:04:24;;;;;;;12.10;3.80;;;;;;;;;;1041196;23;21147;-78
2022/07/05 10:05:11;;;;;;;22.05;5.43;;;;;;;;;;1034036;28;20465;-77
2022/07/05 10:05:42;;;;;;;9.10;4.40;;;;;;;;;;1031206;28;20041;-78
2022/07/05 10:06:12;;;;;;;17.80;4.32;;;;;;;;;;1031686;28;20030;-78
2022/07/05 10:06:43;;;;;;;19.20;5.15;;;;;;;;;;1031275;28;20434;-77
2022/07/05 10:07:28;;;;;;;12.55;4.40;;;;;;;;;;1031437;28;20140;-78
2022/07/05 10:08:00;;;;;;;12.75;4.60;;;;;;;;;;1031446;28;20118;-77
2022/07/05 10:08:31;;;;;;;13.35;5.25;;;;;;;;;;1031608;28;20038;-79
2022/07/05 10:09:01;;;;;;;15.38;5.13;;;;;;;;;;1030855;28;20046;-78
2022/07/05 10:09:32;;;;;;;18.25;5.63;;;;;;;;;;1032183;28;20557;-80
2022/07/05 10:10:04;;;;;;;9.98;3.53;;;;;;;;;;1030938;28;20026;-78
2022/07/05 10:10:34;;;;;;;20.20;5.05;;;;;;;;;;1031477;28;20064;-78
2022/07/05 10:11:05;;;;;;;14.43;4.47;;;;;;;;;;1031451;28;20494;-78
2022/07/05 10:11:40;;;;;;;19.35;3.38;;;;;;;;;;1031814;28;20029;-77
2022/07/05 10:12:11;;;;;;;10.93;3.83;;;;;;;;;;1027125;28;20045;-77
2022/07/05 10:12:42;;;;;;;15.85;4.50;;;;;;;;;;1027406;28;20057;-78
2022/07/05 10:13:14;;;;;;;18.92;4.95;;;;;;;;;;1030627;28;20117;-78
2022/07/05 10:13:47;;;;;;;11.30;5.13;;;;;;;;;;1030547;28;20022;-78
2022/07/05 10:14:19;;;;;;;9.73;3.33;;;;;;;;;;1031243;28;20573;-77
2022/07/05 10:14:49;;;;;;;24.10;4.40;;;;;;;;;;1031941;28;20018;-78
2022/07/05 10:15:21;;;;;;;19.95;4.68;;;;;;;;;;1031969;28;20019;-78
2022/07/05 10:15:51;;;;;;;12.07;3.42;;;;;;;;;;1031080;28;20026;-77
2022/07/05 10:16:22;;;;;;;11.98;3.67;;;;;;;;;;1029758;28;20022;-77
2022/07/05 10:16:57;;;;;;;14.18;4.13;;;;;;;;;;1031961;28;21561;-79
2022/07/05 10:17:30;;;;;;;16.05;3.88;;;;;;;;;;1030711;28;20022;-77
2022/07/05 10:18:15;;;;;;;18.00;4.20;;;;;;;;;;1031204;28;20034;-77
2022/07/05 10:18:48;;;;;;;8.40;2.95;;;;;;;;;;1030048;28;20043;-77
2022/07/05 10:19:20;;;;;;;20.42;3.45;;;;;;;;;;1031446;28;20560;-78
2022/07/05 10:19:51;;;;;;;8.07;3.35;;;;;;;;;;1031760;28;20065;-77
2022/07/05 10:20:21;;;;;;;12.98;3.22;;;;;;;;;;1031809;28;20037;-78
2022/07/05 10:20:53;;;;;;;23.88;3.85;;;;;;;;;;1028519;28;20031;-77
2022/07/05 10:21:24;;;;;;;13.82;5.00;;;;;;;;;;1028442;28;20041;-78
2022/07/05 10:21:55;;;;;;;9.98;5.03;;;;;;;;;;1024986;28;20026;-78
2022/07/05 10:22:27;;;;;;;20.55;4.50;;;;;;;;;;1027973;28;20050;-76
2022/07/05 10:22:58;;;;;;;16.13;3.78;;;;;;;;;;1025095;28;20029;-76
2022/07/05 10:23:28;;;;;;;9.60;3.78;;;;;;;;;;1027368;28;20441;-77
2022/07/05 10:24:00;;;;;;;16.30;2.80;;;;;;;;;;1026750;28;20492;-76
2022/07/05 10:24:33;;;;;;;10.57;3.25;;;;;;;;;;1031788;28;20030;-77
2022/07/05 10:25:04;;;;;;;14.73;3.28;;;;;;;;;;1031205;28;20018;-77
2022/07/05 10:25:36;;;;;;;19.70;4.38;;;;;;;;;;1031609;28;20093;-77
2022/07/05 10:26:07;;;;;;;22.15;4.28;;;;;;;;;;1030823;28;20117;-78
2022/07/05 10:26:38;;;;;;;13.80;3.00;;;;;;;;;;1031942;28;20018;-77
2022/07/05 10:27:09;;;;;;;12.02;2.42;;;;;;;;;;1030583;28;20121;-78
2022/07/05 10:27:40;;;;;;;28.20;4.60;;;;;;;;;;1031741;28;20510;-76
2022/07/05 10:28:11;;;;;;;9.10;2.38;;;;;;;;;;1029658;28;20398;-76
2022/07/05 10:28:45;;;;;;;13.38;4.13;;;;;;;;;;1031321;28;20034;-76
2022/07/05 10:29:15;;;;;;;7.18;2.67;;;;;;;;;;1030871;28;20117;-76
2022/07/05 10:29:49;;;;;;;10.82;3.53;;;;;;;;;;1031924;28;20030;-77
2022/07/05 10:30:22;;;;;;;15.90;2.92;;;;;;;;;;1030180;28;20019;-77
2022/07/05 10:30:54;;;;;;;7.50;2.72;;;;;;;;;;1030727;28;20073;-76
2022/07/05 10:31:25;;;;;;;6.50;2.33;;;;;;;;;;1030083;28;20032;-78
2022/07/05 10:31:55;;;;;;;10.82;3.83;;;;;;;;;;1027596;28;20068;-78
2022/07/05 10:32:28;;;;;;;13.15;3.38;;;;;;;;;;1027202;28;20161;-79
2022/07/05 10:33:01;;;;;;;7.03;2.47;;;;;;;;;;1027122;28;20067;-78
2022/07/05 10:33:32;;;;;;;11.57;4.18;;;;;;;;;;1028011;28;20022;-76
2022/07/05 10:34:07;;;;;;;9.70;3.10;;;;;;;;;;1031150;28;20597;-76
2022/07/05 10:34:42;;;;;;;13.00;4.18;;;;;;;;;;1031233;28;20513;-75
2022/07/05 10:35:13;;;;;;;12.70;2.35;;;;;;;;;;1031612;28;20030;-77
2022/07/05 10:35:43;;;;;;;7.88;2.35;;;;;;;;;;1031360;28;20033;-78
2022/07/05 10:36:14;;;;;;;6.97;3.13;;;;;;;;;;1026837;28;20031;-76
2022/07/05 10:36:44;;;;;;;8.93;2.25;;;;;;;;;;1027292;28;20442;-77
2022/07/05 10:37:15;;;;;;;13.95;2.65;;;;;;;;;;1027206;28;20077;-75
2022/07/05 10:37:46;;;;;;;9.02;4.18;;;;;;;;;;1026102;28;20026;-76
2022/07/05 10:38:17;;;;;;;9.23;2.65;;;;;;;;;;1031001;28;20544;-77
2022/07/05 10:38:48;;;;;;;9.10;2.25;;;;;;;;;;1026230;28;20029;-75
2022/07/05 10:39:18;;;;;;;6.70;2.35;;;;;;;;;;1023921;28;20426;-77
2022/07/05 10:39:49;;;;;;;12.43;2.53;;;;;;;;;;1023029;28;20094;-76
2022/07/05 10:40:20;;;;;;;12.15;2.67;;;;;;;;;;1026241;28;20118;-76
2022/07/05 10:40:52;;;;;;;4.68;2.30;;;;;;;;;;1031715;28;20026;-77
2022/07/05 10:41:24;;;;;;;20.10;3.30;;;;;;;;;;1030970;28;20391;-77
2022/07/05 10:41:55;;;;;;;12.82;2.72;;;;;;;;;;1026947;28;20531;-77
2022/07/05 10:42:27;;;;;;;19.88;3.10;;;;;;;;;;1026143;28;20046;-77
2022/07/05 10:43:01;;;;;;;10.32;1.95;;;;;;;;;;1027314;28;20034;-77
2022/07/05 10:43:32;;;;;;;13.65;4.78;;;;;;;;;;1028097;28;20025;-77
2022/07/05 10:44:02;;;;;;;24.15;4.30;;;;;;;;;;1030417;28;20025;-77
2022/07/05 10:44:33;;;;;;;10.45;4.38;;;;;;;;;;1031593;28;20030;-80
2022/07/05 10:45:49;;;;;;;17.15;3.63;;;;;;;;;;1122483;23;21788;-75
2022/07/05 10:46:32;;;;;;;11.57;3.80;;;;;;;;;;1030610;28;20033;-77
2022/07/05 10:47:21;;;;;;;9.23;2.70;;;;;;;;;;1029015;28;20573;-77
2022/07/05 10:48:16;;;;;;;15.55;4.50;;;;;;;;;;1029384;28;20405;-75
2022/07/05 10:49:06;;;;;;;16.52;3.88;;;;;;;;;;1029713;28;20019;-77
2022/07/05 10:49:38;;;;;;;14.43;2.97;;;;;;;;;;1030126;28;20026;-76
2022/07/05 10:50:08;;;;;;;11.23;2.45;;;;;;;;;;1028000;28;20048;-76
2022/07/05 10:50:42;;;;;;;20.92;3.17;;;;;;;;;;1028860;28;20620;-75
2022/07/05 10:51:14;;;;;;;20.00;3.35;;;;;;;;;;1029084;28;20035;-77
2022/07/05 10:51:45;;;;;;;17.15;2.97;;;;;;;;;;1029582;28;20073;-77
2022/07/05 10:52:24;;;;;;;12.32;2.72;;;;;;;;;;1025992;28;20132;-77
2022/07/05 10:53:01;;;;;;;12.65;2.67;;;;;;;;;;1028328;28;20037;-76
2022/07/05 10:53:38;;;;;;;8.95;3.85;;;;;;;;;;1027711;28;20027;-77
2022/07/05 10:54:08;;;;;;;18.17;4.45;;;;;;;;;;1027860;28;20065;-76
2022/07/05 10:54:57;;;;;;;18.20;4.70;;;;;;;;;;1029436;28;20032;-76
2022/07/05 10:55:28;;;;;;;12.52;2.17;;;;;;;;;;1034321;28;20547;-77
2022/07/05 10:56:04;;;;;;;11.32;2.33;;;;;;;;;;1034775;28;20026;-75
2022/07/05 10:56:36;;;;;;;8.65;2.58;;;;;;;;;;1034075;28;20021;-75
2022/07/05 10:57:23;;;;;;;8.48;1.92;;;;;;;;;;1032932;28;20581;-77
2022/07/05 10:58:27;;;;;;;13.68;2.25;;;;;;;;;;1032682;28;20414;-78
2022/07/05 10:59:05;;;;;;;5.50;2.25;;;;;;;;;;1034755;28;20026;-76
2022/07/05 10:59:54;;;;;;;10.20;2.78;;;;;;;;;;1032982;28;20529;-76
2022/07/05 11:00:24;;;;;;;11.77;2.60;;;;;;;;;;1029699;28;20113;-75
2022/07/05 11:01:13;;;;;;;9.48;2.38;;;;;;;;;;1029400;28;20380;-75
2022/07/05 11:01:43;;;;;;;17.38;2.88;;;;;;;;;;1034197;28;20018;-74
2022/07/05 11:02:14;;;;;;;8.13;2.58;;;;;;;;;;1034714;28;20113;-76
2022/07/05 11:02:45;;;;;;;15.32;2.63;;;;;;;;;;1031009;28;20025;-76
2022/07/05 11:03:36;;;;;;;7.22;3.75;;;;;;;;;;1031011;28;20390;-75
2022/07/05 11:04:18;;;;;;;22.40;3.20;;;;;;;;;;1030670;28;20077;-76
2022/07/05 11:04:54;;;;;;;10.35;2.65;;;;;;;;;;1031124;28;20105;-76
2022/07/05 11:05:25;;;;;;;8.73;2.33;;;;;;;;;;1035393;28;20432;-76
2022/07/05 11:05:56;;;;;;;4.03;2.00;;;;;;;;;;1032326;28;20030;-76
2022/07/05 11:06:28;;;;;;;6.75;2.58;;;;;;;;;;1028459;28;20486;-76
2022/07/05 11:06:58;;;;;;;6.10;2.20;;;;;;;;;;1029782;28;20018;-75
2022/07/05 11:07:47;;;;;;;4.28;2.00;;;;;;;;;;1028641;28;20038;-76
2022/07/05 11:08:18;;;;;;;7.10;2.28;;;;;;;;;;1030673;28;20022;-77
2022/07/05 11:09:02;;;;;;;11.60;2.80;;;;;;;;;;1033809;28;20507;-76
2022/07/05 11:09:33;;;;;;;8.80;2.60;;;;;;;;;;1037335;28;20064;-76
2022/07/05 11:10:06;;;;;;;8.68;2.25;;;;;;;;;;1038666;28;20537;-77
2022/07/05 11:10:57;;;;;;;6.38;2.85;;;;;;;;;;1037040;28;20025;-77
2022/07/05 11:11:34;;;;;;;8.93;3.10;;;;;;;;;;1030749;28;20036;-74
2022/07/05 11:12:06;;;;;;;8.13;3.38;;;;;;;;;;1028802;28;20122;-76
2022/07/05 11:12:39;;;;;;;16.55;4.00;;;;;;;;;;1028689;28;20422;-76
2022/07/05 11:13:28;;;;;;;5.43;2.38;;;;;;;;;;1030189;28;20029;-76
2022/07/05 11:13:59;;;;;;;5.07;1.98;;;;;;;;;;1028644;28;20034;-75
2022/07/05 11:14:30;;;;;;;11.25;3.03;;;;;;;;;;1028657;28;20114;-77
2022/07/05 11:15:05;;;;;;;3.60;1.90;;;;;;;;;;1029811;28;20077;-76
2022/07/05 11:15:36;;;;;;;10.43;2.50;;;;;;;;;;1029245;28;20022;-76
2022/07/05 11:16:22;;;;;;;5.65;1.35;;;;;;;;;;1028273;28;20019;-76
2022/07/05 11:17:08;;;;;;;3.28;1.25;;;;;;;;;;1025425;28;20027;-76
2022/07/05 11:17:38;;;;;;;2.88;1.15;;;;;;;;;;1027261;28;20114;-76
2022/07/05 11:18:15;;;;;;;4.72;2.22;;;;;;;;;;1030833;28;20022;-76
2022/07/05 11:18:46;;;;;;;6.25;1.65;;;;;;;;;;1029253;28;20038;-75
2022/07/05 11:19:19;;;;;;;6.40;1.30;;;;;;;;;;1026771;28;20122;-75